createdAt,value
2023-01-29T00:02:46.871Z,3.80
2023-01-29T00:05:50.094Z,3.74
2023-01-29T00:08:52.635Z,3.60
2023-01-29T00:11:55.778Z,3.66
2023-01-29T00:14:58.356Z,3.65
2023-01-29T00:18:01.586Z,3.57
2023-01-29T00:21:04.442Z,3.56
2023-01-29T00:24:07.791Z,3.60
2023-01-29T00:27:11.236Z,3.50
2023-01-29T00:30:19.353Z,3.49
2023-01-29T00:33:22.161Z,3.49
2023-01-29T00:36:26.452Z,3.40
2023-01-29T00:39:47.502Z,3.32
2023-01-29T00:43:10.080Z,3.32
2023-01-29T00:46:14.515Z,3.28
2023-01-29T00:49:17.667Z,3.18
2023-01-29T00:52:26.363Z,3.13
2023-01-29T00:55:29.464Z,3.27
2023-01-29T00:58:34.448Z,3.10
2023-01-29T01:01:56.411Z,3.11
2023-01-29T01:04:59.068Z,3.09
2023-01-29T01:08:02.240Z,3.00
2023-01-29T01:11:06.829Z,2.94
2023-01-29T01:14:09.968Z,2.89
2023-01-29T01:17:12.528Z,2.82
2023-01-29T01:20:16.381Z,2.75
2023-01-29T01:23:19.714Z,2.69
2023-01-29T01:26:22.806Z,2.63
2023-01-29T01:29:25.469Z,2.59
2023-01-29T01:32:28.723Z,2.64
2023-01-29T01:35:31.247Z,2.67
2023-01-29T01:38:34.556Z,2.72
2023-01-29T01:41:37.165Z,2.65
2023-01-29T01:45:10.364Z,2.60
2023-01-29T01:48:19.743Z,2.57
2023-01-29T01:51:26.329Z,2.54
2023-01-29T01:54:32.343Z,2.57
2023-01-29T01:57:36.529Z,2.50
2023-01-29T02:00:39.589Z,2.36
2023-01-29T02:04:12.215Z,2.28
2023-01-29T02:07:34.749Z,2.19
2023-01-29T02:10:46.792Z,2.15
2023-01-29T02:13:53.864Z,2.14
2023-01-29T02:17:02.030Z,2.11
2023-01-29T02:20:12.141Z,2.05
2023-01-29T02:23:29.367Z,2.07
2023-01-29T02:26:32.288Z,2.19
2023-01-29T02:29:50.375Z,2.15
2023-01-29T02:33:17.276Z,2.19
2023-01-29T02:36:22.933Z,2.14
2023-01-29T02:39:34.122Z,2.10
2023-01-29T02:42:59.737Z,2.05
2023-01-29T02:46:20.949Z,2.03
2023-01-29T02:49:36.097Z,2.10
2023-01-29T02:52:56.847Z,2.15
2023-01-29T02:56:09.870Z,2.02
2023-01-29T02:59:17.647Z,2.02
2023-01-29T03:02:29.244Z,2.00
2023-01-29T03:05:55.106Z,2.06
2023-01-29T03:09:33.015Z,1.98
2023-01-29T03:12:41.140Z,2.01
2023-01-29T03:15:51.264Z,1.96
2023-01-29T03:19:04.077Z,1.92
2023-01-29T03:22:10.784Z,1.90
2023-01-29T03:25:34.231Z,1.88
2023-01-29T03:28:59.275Z,1.92
2023-01-29T03:32:08.773Z,1.96
2023-01-29T03:35:21.067Z,2.09
2023-01-29T03:38:29.546Z,2.06
2023-01-29T03:41:38.662Z,2.17
2023-01-29T03:44:41.807Z,2.21
2023-01-29T03:48:15.159Z,2.13
2023-01-29T03:51:28.338Z,2.20
2023-01-29T03:54:51.630Z,2.34
2023-01-29T03:58:05.005Z,2.28
2023-01-29T04:01:23.126Z,2.30
2023-01-29T04:04:37.981Z,2.37
2023-01-29T04:07:44.316Z,2.33
2023-01-29T04:10:49.493Z,2.35
2023-01-29T04:13:52.725Z,2.37
2023-01-29T04:17:00.251Z,2.51
2023-01-29T04:20:05.907Z,2.51
2023-01-29T04:23:21.406Z,2.48
2023-01-29T04:26:27.480Z,2.57
2023-01-29T04:29:50.963Z,2.59
2023-01-29T04:33:14.786Z,2.57
2023-01-29T04:36:32.988Z,2.67
2023-01-29T04:39:54.179Z,2.62
2023-01-29T04:43:46.313Z,2.62
2023-01-29T04:47:02.307Z,2.58
2023-01-29T04:50:33.792Z,2.58
2023-01-29T04:53:45.104Z,2.65
2023-01-29T04:56:53.696Z,2.68
2023-01-29T05:00:22.473Z,2.66
2023-01-29T05:03:27.584Z,2.84
2023-01-29T05:06:32.311Z,2.85
2023-01-29T05:09:37.356Z,2.77
2023-01-29T05:12:43.674Z,2.83
2023-01-29T05:15:59.021Z,2.81
2023-01-29T05:19:01.876Z,2.76
2023-01-29T05:22:06.417Z,2.75
2023-01-29T05:25:30.376Z,2.73
2023-01-29T05:28:33.068Z,2.80
2023-01-29T05:31:35.763Z,2.72
2023-01-29T05:34:38.646Z,2.71
2023-01-29T05:37:41.675Z,2.75
2023-01-29T05:40:44.744Z,2.70
2023-01-29T05:43:47.704Z,2.72
2023-01-29T05:46:51.161Z,2.70
2023-01-29T05:49:54.944Z,2.75
2023-01-29T05:52:59.241Z,2.76
2023-01-29T05:56:03.265Z,2.74
2023-01-29T05:59:07.356Z,2.72
2023-01-29T06:02:10.162Z,2.80
2023-01-29T06:05:14.004Z,2.80
2023-01-29T06:08:16.793Z,2.81
2023-01-29T06:11:20.614Z,2.81
2023-01-29T06:14:23.447Z,2.82
2023-01-29T06:17:26.280Z,2.86
2023-01-29T06:20:29.069Z,2.77
2023-01-29T06:23:32.178Z,2.84
2023-01-29T06:26:35.143Z,2.82
2023-01-29T06:29:38.159Z,2.85
2023-01-29T06:32:41.122Z,2.81
2023-01-29T06:35:44.010Z,2.76
2023-01-29T06:38:47.338Z,2.73
2023-01-29T06:41:50.124Z,2.77
2023-01-29T06:44:52.911Z,2.71
2023-01-29T06:47:56.585Z,2.67
2023-01-29T06:51:07.815Z,2.67
2023-01-29T06:54:11.314Z,2.63
2023-01-29T06:57:13.953Z,2.62
2023-01-29T07:00:17.432Z,2.68
2023-01-29T07:03:20.575Z,2.75
2023-01-29T07:06:28.092Z,2.73
2023-01-29T07:09:31.192Z,2.82
2023-01-29T07:12:34.030Z,2.76
2023-01-29T07:15:37.355Z,2.72
2023-01-29T07:18:40.248Z,2.96
2023-01-29T07:21:43.089Z,2.79
2023-01-29T07:24:45.964Z,2.83
2023-01-29T07:27:49.702Z,2.98
2023-01-29T07:30:59.217Z,2.94
2023-01-29T07:34:02.275Z,3.00
2023-01-29T07:37:06.323Z,3.32
2023-01-29T07:40:11.445Z,3.15
2023-01-29T07:43:17.228Z,3.09
2023-01-29T07:46:20.213Z,3.13
2023-01-29T07:49:22.987Z,3.15
2023-01-29T07:52:25.847Z,3.19
2023-01-29T07:55:28.721Z,3.22
2023-01-29T07:58:31.561Z,3.17
2023-01-29T08:01:34.431Z,3.20
2023-01-29T08:04:37.692Z,3.20
2023-01-29T08:07:40.175Z,3.21
2023-01-29T08:10:43.503Z,3.31
2023-01-29T08:13:46.763Z,3.24
2023-01-29T08:16:50.512Z,3.25
2023-01-29T08:19:53.190Z,3.26
2023-01-29T08:23:05.078Z,3.37
2023-01-29T08:26:07.855Z,3.40
2023-01-29T08:29:12.194Z,3.41
2023-01-29T08:32:14.844Z,3.34
2023-01-29T08:35:18.138Z,3.34
2023-01-29T08:38:21.619Z,3.33
2023-01-29T08:41:24.820Z,3.30
2023-01-29T08:44:27.376Z,3.51
2023-01-29T08:47:30.461Z,3.44
2023-01-29T08:50:34.923Z,3.40
2023-01-29T08:53:38.054Z,3.39
2023-01-29T08:56:40.593Z,3.36
2023-01-29T08:59:43.715Z,3.37
2023-01-29T09:02:46.348Z,3.27
2023-01-29T09:05:49.579Z,3.28
2023-01-29T09:08:52.153Z,3.26
2023-01-29T09:11:55.321Z,3.30
2023-01-29T09:14:58.024Z,3.32
2023-01-29T09:18:04.378Z,3.33
2023-01-29T09:21:07.215Z,3.30
2023-01-29T09:24:10.863Z,3.36
2023-01-29T09:27:13.457Z,3.39
2023-01-29T09:30:17.309Z,3.43
2023-01-29T09:33:20.565Z,3.35
2023-01-29T09:36:23.886Z,3.36
2023-01-29T09:39:26.417Z,3.39
2023-01-29T09:42:44.138Z,3.53
2023-01-29T09:46:05.586Z,3.59
2023-01-29T09:49:26.667Z,3.64
2023-01-29T09:52:45.716Z,3.63
2023-01-29T09:56:02.380Z,3.64
2023-01-29T09:59:05.058Z,3.55
2023-01-29T10:02:53.388Z,3.55
2023-01-29T10:06:15.410Z,3.66
2023-01-29T10:09:27.316Z,3.63
2023-01-29T10:12:48.796Z,3.72
2023-01-29T10:16:48.690Z,3.78
2023-01-29T10:20:05.307Z,3.92
2023-01-29T10:23:34.739Z,3.99
2023-01-29T10:26:40.662Z,4.01
2023-01-29T10:29:46.928Z,3.95
2023-01-29T10:32:54.441Z,4.15
2023-01-29T10:36:03.313Z,4.05
2023-01-29T10:39:22.015Z,4.02
2023-01-29T10:42:35.436Z,3.94
2023-01-29T10:45:57.537Z,3.92
2023-01-29T10:49:37.263Z,3.95
2023-01-29T10:53:18.244Z,3.98
2023-01-29T10:56:30.069Z,3.90
2023-01-29T11:00:12.834Z,3.87
2023-01-29T11:03:28.612Z,3.94
2023-01-29T11:06:36.901Z,3.91
2023-01-29T11:10:00.624Z,3.86
2023-01-29T11:13:05.419Z,3.86
2023-01-29T11:16:09.404Z,3.93
2023-01-29T11:19:13.149Z,3.88
2023-01-29T11:22:20.183Z,3.90
2023-01-29T11:25:24.727Z,4.02
2023-01-29T11:28:41.023Z,4.07
2023-01-29T11:31:44.384Z,4.04
2023-01-29T11:35:16.422Z,4.08
2023-01-29T11:38:24.145Z,4.00
2023-01-29T11:41:27.039Z,3.99
2023-01-29T11:44:39.693Z,4.04
2023-01-29T11:47:42.417Z,4.02
2023-01-29T11:50:52.920Z,4.22
2023-01-29T11:53:58.584Z,4.11
2023-01-29T11:57:03.575Z,4.15
2023-01-29T12:00:31.478Z,4.13
2023-01-29T12:03:43.720Z,4.11
2023-01-29T12:06:52.069Z,4.15
2023-01-29T12:09:58.000Z,4.24
2023-01-29T12:13:22.317Z,4.22
2023-01-29T12:16:32.196Z,4.30
2023-01-29T12:19:47.658Z,4.33
2023-01-29T12:22:58.604Z,4.29
2023-01-29T12:26:07.967Z,4.30
2023-01-29T12:29:32.566Z,4.43
2023-01-29T12:32:42.309Z,4.54
2023-01-29T12:35:54.885Z,4.52
2023-01-29T12:38:59.025Z,4.61
2023-01-29T12:42:09.109Z,4.91
2023-01-29T12:45:19.140Z,5.15
2023-01-29T12:48:31.548Z,5.25
2023-01-29T12:51:40.783Z,5.48
2023-01-29T12:54:53.813Z,5.31
2023-01-29T12:58:13.977Z,5.46
2023-01-29T13:01:32.053Z,5.81
2023-01-29T13:04:43.602Z,5.78
2023-01-29T13:08:06.063Z,5.86
2023-01-29T13:11:27.548Z,5.71
2023-01-29T13:14:52.801Z,6.16
2023-01-29T13:18:11.593Z,8.34
2023-01-29T13:21:40.102Z,8.59
2023-01-29T13:24:47.881Z,9.52
2023-01-29T13:27:53.906Z,9.85
2023-01-29T13:31:21.676Z,11.85
2023-01-29T13:34:28.577Z,14.08
2023-01-29T13:37:34.600Z,15.42
2023-01-29T13:40:38.504Z,15.16
2023-01-29T13:43:43.662Z,13.76
2023-01-29T13:47:24.234Z,12.15
2023-01-29T13:50:41.570Z,10.69
2023-01-29T13:53:54.091Z,9.57
2023-01-29T13:57:01.988Z,8.91
2023-01-29T14:00:06.599Z,8.19
2023-01-29T14:03:11.781Z,7.65
2023-01-29T14:06:40.631Z,7.09
2023-01-29T14:09:43.385Z,6.48
2023-01-29T14:12:47.802Z,6.17
2023-01-29T14:15:56.584Z,5.84
2023-01-29T14:19:02.132Z,5.53
2023-01-29T14:22:18.976Z,5.34
2023-01-29T14:25:28.734Z,4.95
2023-01-29T14:28:33.615Z,4.70
2023-01-29T14:31:39.136Z,4.40
2023-01-29T14:34:49.763Z,4.03
2023-01-29T14:37:57.593Z,3.80
2023-01-29T14:41:07.640Z,3.59
2023-01-29T14:44:44.803Z,3.42
2023-01-29T14:47:47.576Z,3.16
2023-01-29T14:50:52.164Z,3.05
2023-01-29T14:54:02.699Z,2.92
2023-01-29T14:57:13.471Z,2.96
2023-01-29T15:00:24.361Z,2.76
2023-01-29T15:03:40.099Z,2.54
2023-01-29T15:06:57.834Z,2.47
2023-01-29T15:10:22.281Z,2.56
2023-01-29T15:13:36.000Z,2.45
2023-01-29T15:17:06.339Z,2.29
2023-01-29T15:20:33.256Z,2.20
2023-01-29T15:23:36.121Z,2.22
2023-01-29T15:26:43.051Z,2.11
2023-01-29T15:30:03.874Z,2.04
2023-01-29T15:33:10.622Z,2.00
2023-01-29T15:36:29.927Z,1.78
2023-01-29T15:39:42.847Z,1.73
2023-01-29T15:42:48.764Z,1.56
2023-01-29T15:45:55.593Z,1.51
2023-01-29T15:49:05.951Z,1.54
2023-01-29T15:52:19.250Z,1.55
2023-01-29T15:55:24.009Z,1.49
2023-01-29T15:58:32.263Z,1.44
2023-01-29T16:01:38.369Z,1.33
2023-01-29T16:04:41.443Z,1.26
2023-01-29T16:07:45.506Z,1.36
2023-01-29T16:10:53.824Z,1.28
2023-01-29T16:13:57.123Z,1.33
2023-01-29T16:17:25.022Z,1.39
2023-01-29T16:20:35.243Z,1.33
2023-01-29T16:23:48.961Z,1.32
2023-01-29T16:26:53.469Z,1.18
2023-01-29T16:29:56.467Z,1.13
2023-01-29T16:33:08.245Z,1.13
2023-01-29T16:36:19.570Z,1.13
2023-01-29T16:39:25.417Z,1.08
2023-01-29T16:42:30.426Z,0.97
2023-01-29T16:45:33.314Z,0.91
2023-01-29T16:48:36.281Z,0.87
2023-01-29T16:51:39.540Z,0.97
2023-01-29T16:54:44.720Z,0.83
2023-01-29T16:57:55.470Z,0.78
2023-01-29T17:01:09.135Z,0.86
2023-01-29T17:04:14.649Z,0.85
2023-01-29T17:07:21.414Z,0.81
2023-01-29T17:10:26.020Z,0.85
2023-01-29T17:13:36.336Z,0.84
2023-01-29T17:16:55.761Z,0.84
2023-01-29T17:20:09.646Z,0.82
2023-01-29T17:23:12.524Z,0.72
2023-01-29T17:26:15.657Z,0.81
2023-01-29T17:29:20.779Z,0.75
2023-01-29T17:32:25.220Z,0.67
2023-01-29T17:35:48.938Z,0.65
2023-01-29T17:38:52.141Z,0.58
2023-01-29T17:41:57.786Z,0.56
2023-01-29T17:45:00.693Z,0.57
2023-01-29T17:48:03.768Z,0.48
2023-01-29T17:51:10.915Z,0.51
2023-01-29T17:54:13.705Z,0.41
2023-01-29T17:57:16.904Z,0.55
2023-01-29T18:00:24.551Z,0.52
2023-01-29T18:03:27.783Z,0.40
2023-01-29T18:06:31.016Z,0.35
2023-01-29T18:09:34.029Z,0.40
2023-01-29T18:12:36.944Z,0.49
2023-01-29T18:15:40.368Z,0.37
2023-01-29T18:18:43.408Z,0.26
2023-01-29T18:21:46.624Z,0.31
2023-01-29T18:24:49.494Z,0.39
2023-01-29T18:27:52.329Z,0.27
2023-01-29T18:30:55.412Z,0.29
2023-01-29T18:33:58.400Z,0.25
2023-01-29T18:37:01.260Z,0.17
2023-01-29T18:40:05.337Z,0.22
2023-01-29T18:43:08.462Z,0.16
2023-01-29T18:46:11.520Z,0.12
2023-01-29T18:49:14.537Z,0.11
2023-01-29T18:52:18.188Z,0.10
2023-01-29T18:55:24.169Z,0.21
2023-01-29T18:58:35.308Z,0.17
2023-01-29T19:01:40.257Z,0.08
2023-01-29T19:04:43.351Z,0.02
2023-01-29T19:07:46.182Z,0.01
2023-01-29T19:10:49.080Z,0.01
2023-01-29T19:13:51.966Z,-0.06
2023-01-29T19:16:56.069Z,0.01
2023-01-29T19:20:02.167Z,0.04
2023-01-29T19:23:05.089Z,-0.01
2023-01-29T19:26:09.052Z,-0.03
2023-01-29T19:29:17.727Z,-0.02
2023-01-29T19:32:20.725Z,-0.04
2023-01-29T19:35:23.848Z,-0.04
2023-01-29T19:38:27.892Z,-0.07
2023-01-29T19:41:31.139Z,-0.05
2023-01-29T19:44:35.599Z,-0.10
2023-01-29T19:47:41.548Z,-0.12
2023-01-29T19:50:58.192Z,-0.19
2023-01-29T19:54:02.323Z,-0.12
2023-01-29T19:57:06.926Z,-0.19
2023-01-29T20:00:15.511Z,-0.16
2023-01-29T20:03:18.813Z,-0.11
2023-01-29T20:06:28.617Z,-0.10
2023-01-29T20:09:31.939Z,-0.15
2023-01-29T20:12:34.939Z,-0.12
2023-01-29T20:15:38.203Z,-0.12
2023-01-29T20:18:40.813Z,-0.14
2023-01-29T20:21:46.813Z,-0.13
2023-01-29T20:24:49.499Z,-0.10
2023-01-29T20:27:52.680Z,-0.17
2023-01-29T20:30:56.432Z,-0.03
2023-01-29T20:34:00.042Z,-0.06
2023-01-29T20:37:03.147Z,-0.11
2023-01-29T20:40:06.830Z,-0.10
2023-01-29T20:43:09.508Z,-0.07
2023-01-29T20:46:13.008Z,-0.04
2023-01-29T20:49:17.370Z,-0.06
2023-01-29T20:52:20.616Z,-0.13
2023-01-29T20:55:23.444Z,-0.18
2023-01-29T20:58:26.733Z,-0.14
2023-01-29T21:01:29.640Z,-0.16
2023-01-29T21:04:32.741Z,-0.25
2023-01-29T21:07:36.197Z,-0.16
2023-01-29T21:10:39.381Z,-0.25
2023-01-29T21:13:43.998Z,-0.28
2023-01-29T21:16:47.421Z,-0.23
2023-01-29T21:19:50.371Z,-0.26
2023-01-29T21:22:53.971Z,-0.20
2023-01-29T21:26:04.514Z,-0.26
2023-01-29T21:29:07.870Z,-0.28
2023-01-29T21:32:11.671Z,-0.32
2023-01-29T21:35:18.493Z,-0.29
2023-01-29T21:38:22.103Z,-0.33
2023-01-29T21:41:45.379Z,-0.25
2023-01-29T21:44:47.957Z,-0.27
2023-01-29T21:47:51.282Z,-0.28
2023-01-29T21:50:53.841Z,-0.26
2023-01-29T21:53:57.148Z,-0.32
2023-01-29T21:56:59.694Z,-0.34
2023-01-29T22:00:03.491Z,-0.36
2023-01-29T22:03:06.919Z,-0.37
2023-01-29T22:06:10.049Z,-0.32
2023-01-29T22:09:13.297Z,-0.34
2023-01-29T22:12:17.671Z,-0.39
2023-01-29T22:15:22.504Z,-0.40
2023-01-29T22:18:27.291Z,-0.42
2023-01-29T22:21:30.045Z,-0.44
2023-01-29T22:24:33.083Z,-0.45
2023-01-29T22:27:36.013Z,-0.46
2023-01-29T22:30:39.160Z,-0.48
2023-01-29T22:33:42.925Z,-0.36
2023-01-29T22:36:46.095Z,-0.41
2023-01-29T22:39:48.720Z,-0.38
2023-01-29T22:42:51.871Z,-0.35
2023-01-29T22:45:54.825Z,-0.40
2023-01-29T22:48:57.863Z,-0.43
2023-01-29T22:52:12.658Z,-0.34
2023-01-29T22:55:15.806Z,-0.36
2023-01-29T22:58:18.465Z,-0.37
2023-01-29T23:01:24.325Z,-0.38
2023-01-29T23:04:26.991Z,-0.38
2023-01-29T23:07:30.460Z,-0.31
2023-01-29T23:10:33.071Z,-0.33
2023-01-29T23:13:36.234Z,-0.34
2023-01-29T23:16:38.811Z,-0.35
2023-01-29T23:19:42.037Z,-0.35
2023-01-29T23:22:44.621Z,-0.35
2023-01-29T23:26:06.413Z,-0.32
2023-01-29T23:29:09.486Z,-0.28
2023-01-29T23:32:18.688Z,-0.27
2023-01-29T23:35:21.306Z,-0.25
2023-01-29T23:38:24.415Z,-0.31
2023-01-29T23:41:27.056Z,-0.38
2023-01-29T23:44:30.254Z,-0.37
2023-01-29T23:47:32.896Z,-0.40
2023-01-29T23:50:36.264Z,-0.42
2023-01-29T23:53:38.889Z,-0.40
2023-01-29T23:56:42.409Z,-0.41
2023-01-29T23:59:44.940Z,-0.36
